createdAt,value
2024-05-09T00:00:47.516Z,19.25
2024-05-09T00:03:15.153Z,17.55
2024-05-09T00:05:46.356Z,15.43
2024-05-09T00:08:13.707Z,81.38
2024-05-09T00:10:41.481Z,50.50
2024-05-09T00:13:10.918Z,60.75
2024-05-09T00:15:39.183Z,25.98
2024-05-09T00:18:08.162Z,19.65
2024-05-09T00:20:39.815Z,16.23
2024-05-09T00:23:12.984Z,17.67
2024-05-09T00:25:44.107Z,14.45
2024-05-09T00:28:13.230Z,14.35
2024-05-09T00:30:40.723Z,16.45
2024-05-09T00:33:09.843Z,17.10
2024-05-09T00:35:39.362Z,13.07
2024-05-09T00:38:06.913Z,15.60
2024-05-09T00:40:43.583Z,12.95
2024-05-09T00:43:14.964Z,46.28
2024-05-09T00:45:44.002Z,28.52
2024-05-09T00:48:14.990Z,26.67
2024-05-09T00:50:46.560Z,26.58
2024-05-09T00:53:17.502Z,15.45
2024-05-09T00:55:45.133Z,14.45
2024-05-09T00:58:16.082Z,16.13
2024-05-09T01:00:44.125Z,15.90
2024-05-09T01:03:13.731Z,24.40
2024-05-09T01:05:43.422Z,13.30
2024-05-09T01:08:12.432Z,20.15
2024-05-09T01:10:43.705Z,19.65
2024-05-09T01:13:12.318Z,14.45
2024-05-09T01:15:39.345Z,14.38
2024-05-09T01:18:12.617Z,14.75
2024-05-09T01:20:44.588Z,14.20
2024-05-09T01:23:14.887Z,14.35
2024-05-09T01:25:44.537Z,17.92
2024-05-09T01:28:11.758Z,15.65
2024-05-09T01:30:39.759Z,15.85
2024-05-09T01:33:09.582Z,21.83
2024-05-09T01:35:42.087Z,17.98
2024-05-09T01:38:14.104Z,16.00
2024-05-09T01:40:41.480Z,17.13
2024-05-09T01:43:12.550Z,18.95
2024-05-09T01:45:41.089Z,16.17
2024-05-09T01:48:11.337Z,17.05
2024-05-09T01:50:42.209Z,16.13
2024-05-09T01:53:13.756Z,15.57
2024-05-09T01:55:42.549Z,18.92
2024-05-09T01:58:09.920Z,18.38
2024-05-09T02:00:41.001Z,17.30
2024-05-09T02:03:17.976Z,18.15
2024-05-09T02:05:50.462Z,20.02
2024-05-09T02:08:22.151Z,17.27
2024-05-09T02:10:50.591Z,20.02
2024-05-09T02:13:18.833Z,18.20
2024-05-09T02:15:46.282Z,16.98
2024-05-09T02:18:14.137Z,21.27
2024-05-09T02:20:44.973Z,17.30
2024-05-09T02:23:12.643Z,14.30
2024-05-09T02:25:43.817Z,13.63
2024-05-09T02:28:10.846Z,17.27
2024-05-09T02:30:42.314Z,14.10
2024-05-09T02:33:12.852Z,11.35
2024-05-09T02:35:43.871Z,14.95
2024-05-09T02:38:14.863Z,15.13
2024-05-09T02:40:41.950Z,14.13
2024-05-09T02:43:12.638Z,17.08
2024-05-09T02:46:03.848Z,12.98
2024-05-09T02:48:30.961Z,13.98
2024-05-09T02:50:58.257Z,14.90
2024-05-09T02:53:26.258Z,15.70
2024-05-09T02:55:53.614Z,19.48
2024-05-09T02:58:21.124Z,24.92
2024-05-09T03:00:51.671Z,13.68
2024-05-09T03:03:18.977Z,13.57
2024-05-09T03:05:48.041Z,12.02
2024-05-09T03:08:15.703Z,15.68
2024-05-09T03:10:47.731Z,18.17
2024-05-09T03:13:16.072Z,15.07
2024-05-09T03:15:48.134Z,17.48
2024-05-09T03:18:15.591Z,14.27
2024-05-09T03:20:46.010Z,15.02
2024-05-09T03:23:13.142Z,18.00
2024-05-09T03:25:43.360Z,16.92
2024-05-09T03:28:11.693Z,18.13
2024-05-09T03:30:42.172Z,16.42
2024-05-09T03:33:19.551Z,15.95
2024-05-09T03:35:49.633Z,18.40
2024-05-09T03:38:17.114Z,18.88
2024-05-09T03:40:49.057Z,21.95
2024-05-09T03:43:17.488Z,21.75
2024-05-09T03:45:45.963Z,17.75
2024-05-09T03:48:14.113Z,18.77
2024-05-09T03:50:41.921Z,16.02
2024-05-09T03:53:14.052Z,14.85
2024-05-09T03:55:44.848Z,16.20
2024-05-09T03:58:14.704Z,15.63
2024-05-09T04:00:45.491Z,13.80
2024-05-09T04:03:19.094Z,15.85
2024-05-09T04:05:49.176Z,15.60
2024-05-09T04:10:43.389Z,14.40
2024-05-09T04:13:15.500Z,14.18
2024-05-09T04:15:42.476Z,13.82
2024-05-09T04:18:13.055Z,17.50
2024-05-09T04:20:41.351Z,16.90
2024-05-09T04:23:13.997Z,14.40
2024-05-09T04:25:43.339Z,17.42
2024-05-09T04:28:10.554Z,16.00
2024-05-09T04:30:40.530Z,14.68
2024-05-09T04:33:12.195Z,14.20
2024-05-09T04:35:43.560Z,13.32
2024-05-09T04:38:14.427Z,16.52
2024-05-09T04:40:42.610Z,14.10
2024-05-09T04:43:24.051Z,12.93
2024-05-09T04:45:51.140Z,14.15
2024-05-09T04:48:19.548Z,15.60
2024-05-09T04:50:47.111Z,18.77
2024-05-09T04:53:21.349Z,14.15
2024-05-09T04:55:48.505Z,16.70
2024-05-09T04:58:19.581Z,18.48
2024-05-09T05:00:46.637Z,27.13
2024-05-09T05:03:15.847Z,18.55
2024-05-09T05:05:45.746Z,19.70
2024-05-09T05:08:16.891Z,21.92
2024-05-09T05:10:44.901Z,23.08
2024-05-09T05:13:25.957Z,23.48
2024-05-09T05:15:58.956Z,22.10
2024-05-09T05:18:27.875Z,24.65
2024-05-09T05:20:57.167Z,31.13
2024-05-09T05:23:24.891Z,19.52
2024-05-09T05:25:56.583Z,15.77
2024-05-09T05:28:24.734Z,14.02
2024-05-09T05:30:52.752Z,17.05
2024-05-09T05:33:20.793Z,18.83
2024-05-09T05:35:48.422Z,15.43
2024-05-09T05:38:41.242Z,15.68
2024-05-09T05:41:08.693Z,14.70
2024-05-09T05:43:35.714Z,17.55
2024-05-09T05:46:06.372Z,21.67
2024-05-09T05:48:33.598Z,17.02
2024-05-09T05:51:04.231Z,18.15
2024-05-09T05:53:32.134Z,18.83
2024-05-09T05:55:59.636Z,20.42
2024-05-09T05:58:29.615Z,18.98
2024-05-09T06:03:24.322Z,21.70
2024-05-09T06:05:55.187Z,16.40
2024-05-09T06:08:28.022Z,19.88
2024-05-09T06:10:57.813Z,22.55
2024-05-09T06:13:34.257Z,21.85
2024-05-09T06:16:02.592Z,22.50
2024-05-09T06:18:32.782Z,25.35
2024-05-09T06:20:59.884Z,24.75
2024-05-09T06:23:30.007Z,24.77
2024-05-09T06:25:57.707Z,36.33
2024-05-09T06:28:25.710Z,24.20
2024-05-09T06:30:53.486Z,23.25
2024-05-09T06:33:21.303Z,30.75
2024-05-09T06:35:49.014Z,27.35
2024-05-09T06:38:18.588Z,32.60
2024-05-09T06:40:45.791Z,31.92
2024-05-09T06:43:18.857Z,30.80
2024-05-09T06:45:53.011Z,25.88
2024-05-09T06:48:22.922Z,28.17
2024-05-09T06:50:50.808Z,26.70
2024-05-09T06:53:24.074Z,27.10
2024-05-09T06:55:51.779Z,26.33
2024-05-09T06:58:19.749Z,26.35
2024-05-09T07:00:47.540Z,32.40
2024-05-09T07:03:19.991Z,30.13
2024-05-09T07:05:48.974Z,21.75
2024-05-09T07:08:17.782Z,25.75
2024-05-09T07:10:45.574Z,21.23
2024-05-09T07:13:15.634Z,23.80
2024-05-09T07:15:43.877Z,25.35
2024-05-09T07:18:20.770Z,28.38
2024-05-09T07:20:51.709Z,27.83
2024-05-09T07:23:21.079Z,26.42
2024-05-09T07:25:48.798Z,23.90
2024-05-09T07:28:19.880Z,24.02
2024-05-09T07:30:47.578Z,20.90
2024-05-09T07:33:23.454Z,25.83
2024-05-09T07:35:52.831Z,17.50
2024-05-09T07:38:20.985Z,21.48
2024-05-09T07:40:49.829Z,19.50
2024-05-09T07:43:17.478Z,19.75
2024-05-09T07:45:52.141Z,19.83
2024-05-09T07:53:39.996Z,20.80
2024-05-09T07:56:12.764Z,18.98
2024-05-09T07:58:40.810Z,16.17
2024-05-09T08:01:13.474Z,17.67
2024-05-09T08:03:41.217Z,16.42
2024-05-09T08:06:09.231Z,20.67
2024-05-09T08:08:36.332Z,13.63
2024-05-09T08:11:03.514Z,10.75
2024-05-09T08:13:30.963Z,13.25
2024-05-09T08:15:58.562Z,11.52
2024-05-09T08:18:25.686Z,12.43
2024-05-09T08:20:52.880Z,12.13
2024-05-09T08:23:19.904Z,9.70
2024-05-09T08:25:47.040Z,9.52
2024-05-09T08:28:15.431Z,13.10
2024-05-09T08:30:43.396Z,12.05
2024-05-09T08:33:10.856Z,8.77
2024-05-09T08:35:38.121Z,7.20
2024-05-09T08:38:06.944Z,8.48
2024-05-09T08:40:36.981Z,10.70
2024-05-09T08:43:11.400Z,11.52
2024-05-09T08:45:43.987Z,10.48
2024-05-09T08:48:15.187Z,24.98
2024-05-09T08:50:43.949Z,11.98
2024-05-09T08:53:12.325Z,13.48
2024-05-09T08:55:43.378Z,10.63
2024-05-09T08:58:16.620Z,8.68
2024-05-09T09:00:45.814Z,13.70
2024-05-09T09:03:17.932Z,11.07
2024-05-09T09:06:03.416Z,20.92
2024-05-09T09:08:30.747Z,9.55
2024-05-09T09:11:01.005Z,6.35
2024-05-09T09:13:28.679Z,8.15
2024-05-09T09:15:57.993Z,10.23
2024-05-09T09:20:54.237Z,4.40
2024-05-09T09:23:21.241Z,6.10
2024-05-09T09:25:48.487Z,7.70
2024-05-09T09:28:16.044Z,8.27
2024-05-09T09:30:43.676Z,7.05
2024-05-09T09:33:11.596Z,10.95
2024-05-09T09:35:41.788Z,14.93
2024-05-09T09:38:10.847Z,10.55
2024-05-09T09:40:46.714Z,14.68
2024-05-09T09:43:23.060Z,14.77
2024-05-09T09:45:51.544Z,12.85
2024-05-09T09:48:21.649Z,8.63
2024-05-09T09:50:54.604Z,6.20
2024-05-09T09:53:23.635Z,7.85
2024-05-09T09:55:52.327Z,6.63
2024-05-09T09:58:19.780Z,9.18
2024-05-09T10:00:47.329Z,8.82
2024-05-09T10:03:14.521Z,10.75
2024-05-09T10:05:45.326Z,8.70
2024-05-09T10:08:16.157Z,8.82
2024-05-09T10:10:47.690Z,7.35
2024-05-09T10:13:15.420Z,8.93
2024-05-09T10:15:48.167Z,6.78
2024-05-09T10:18:15.850Z,10.88
2024-05-09T10:20:46.698Z,10.10
2024-05-09T10:23:30.155Z,8.13
2024-05-09T10:26:05.898Z,7.55
2024-05-09T10:28:35.777Z,6.32
2024-05-09T10:31:14.935Z,7.13
2024-05-09T10:33:52.873Z,12.57
2024-05-09T10:36:24.028Z,6.75
2024-05-09T10:38:52.924Z,5.13
2024-05-09T10:41:21.126Z,8.05
2024-05-09T10:43:48.621Z,8.40
2024-05-09T10:46:16.041Z,5.88
2024-05-09T10:48:44.279Z,7.68
2024-05-09T10:51:11.839Z,3.95
2024-05-09T10:53:43.572Z,4.97
2024-05-09T10:56:11.399Z,5.25
2024-05-09T10:58:38.393Z,3.72
2024-05-09T11:01:07.380Z,8.95
2024-05-09T11:03:35.652Z,4.82
2024-05-09T11:06:03.319Z,5.38
2024-05-09T11:08:32.374Z,5.82
2024-05-09T11:13:32.818Z,4.03
2024-05-09T11:16:00.962Z,6.45
2024-05-09T11:18:33.263Z,4.40
2024-05-09T11:21:03.400Z,5.90
2024-05-09T11:23:30.926Z,8.00
2024-05-09T11:25:59.065Z,7.15
2024-05-09T11:28:29.108Z,5.03
2024-05-09T11:31:07.426Z,3.78
2024-05-09T11:33:41.585Z,3.70
2024-05-09T11:36:09.758Z,3.72
2024-05-09T11:38:37.183Z,4.25
2024-05-09T11:41:05.601Z,5.32
2024-05-09T11:43:33.161Z,4.72
2024-05-09T11:46:03.204Z,4.13
2024-05-09T11:48:30.962Z,6.30
2024-05-09T11:50:58.304Z,3.50
2024-05-09T11:53:25.580Z,4.28
2024-05-09T11:55:52.823Z,6.40
2024-05-09T11:58:21.646Z,4.22
2024-05-09T12:00:48.822Z,5.40
2024-05-09T12:03:16.231Z,5.85
2024-05-09T12:05:43.513Z,8.98
2024-05-09T12:08:10.742Z,4.45
2024-05-09T12:10:38.592Z,4.88
2024-05-09T12:13:07.031Z,6.18
2024-05-09T12:15:38.079Z,4.20
2024-05-09T12:18:07.419Z,3.75
2024-05-09T12:20:38.425Z,3.63
2024-05-09T12:23:09.974Z,3.58
2024-05-09T12:25:39.594Z,3.63
2024-05-09T12:28:07.752Z,6.97
2024-05-09T12:30:38.810Z,3.53
2024-05-09T12:33:08.882Z,4.88
2024-05-09T12:35:36.397Z,3.30
2024-05-09T12:38:03.779Z,5.22
2024-05-09T12:40:35.994Z,5.65
2024-05-09T12:43:09.720Z,5.35
2024-05-09T12:45:38.183Z,5.28
2024-05-09T12:48:08.669Z,4.10
2024-05-09T12:50:36.948Z,10.48
2024-05-09T12:53:05.228Z,5.75
2024-05-09T12:55:41.253Z,4.65
2024-05-09T12:58:19.342Z,5.80
2024-05-09T13:00:47.142Z,3.92
2024-05-09T13:03:14.946Z,6.10
2024-05-09T13:05:45.262Z,5.20
2024-05-09T13:08:13.504Z,7.18
2024-05-09T13:10:40.924Z,6.47
2024-05-09T13:13:10.239Z,4.18
2024-05-09T13:18:05.955Z,5.28
2024-05-09T13:20:35.451Z,4.20
2024-05-09T13:23:05.434Z,9.15
2024-05-09T13:25:35.009Z,6.22
2024-05-09T13:28:03.321Z,4.43
2024-05-09T13:30:39.042Z,5.65
2024-05-09T13:33:12.799Z,4.07
2024-05-09T13:35:46.914Z,3.85
2024-05-09T13:38:17.683Z,5.03
2024-05-09T13:40:45.137Z,6.70
2024-05-09T13:43:12.641Z,9.95
2024-05-09T13:45:40.110Z,7.15
2024-05-09T13:48:10.022Z,4.75
2024-05-09T13:50:37.649Z,5.03
2024-05-09T13:53:07.066Z,4.95
2024-05-09T13:55:37.580Z,6.82
2024-05-09T13:58:05.436Z,5.25
2024-05-09T14:00:43.662Z,5.35
2024-05-09T14:03:16.242Z,7.20
2024-05-09T14:08:12.106Z,5.18
2024-05-09T14:10:44.780Z,3.92
2024-05-09T14:13:12.996Z,5.80
2024-05-09T14:15:40.752Z,5.38
2024-05-09T14:18:10.177Z,5.15
2024-05-09T14:20:39.423Z,4.05
2024-05-09T14:23:06.446Z,6.93
2024-05-09T14:25:38.655Z,5.03
2024-05-09T14:28:08.993Z,4.93
2024-05-09T14:30:38.031Z,6.80
2024-05-09T14:33:07.380Z,5.97
2024-05-09T14:35:35.533Z,5.13
2024-05-09T14:38:03.149Z,4.95
2024-05-09T14:40:40.504Z,7.65
2024-05-09T14:43:14.613Z,6.50
2024-05-09T14:45:42.804Z,6.03
2024-05-09T14:48:10.747Z,4.80
2024-05-09T14:50:40.123Z,5.82
2024-05-09T14:53:10.064Z,4.45
2024-05-09T14:55:40.069Z,7.53
2024-05-09T14:58:09.327Z,5.30
2024-05-09T15:00:46.206Z,4.68
2024-05-09T15:03:20.568Z,5.65
2024-05-09T15:05:49.098Z,5.00
2024-05-09T15:08:18.609Z,5.57
2024-05-09T15:10:46.891Z,7.22
2024-05-09T15:13:16.479Z,4.72
2024-05-09T15:15:44.324Z,6.05
2024-05-09T15:18:11.835Z,5.45
2024-05-09T15:20:40.994Z,5.30
2024-05-09T15:25:36.502Z,4.32
2024-05-09T15:28:04.840Z,5.43
2024-05-09T15:30:33.739Z,6.43
2024-05-09T15:33:06.325Z,4.85
2024-05-09T15:35:34.484Z,7.60
2024-05-09T15:38:03.335Z,4.93
2024-05-09T15:40:37.845Z,5.70
2024-05-09T15:43:09.551Z,5.85
2024-05-09T15:45:38.198Z,4.13
2024-05-09T15:48:06.472Z,7.20
2024-05-09T15:50:38.770Z,3.88
2024-05-09T15:53:09.700Z,3.67
2024-05-09T15:58:06.151Z,5.28
2024-05-09T16:00:39.113Z,5.28
2024-05-09T16:03:14.322Z,5.40
2024-05-09T16:05:45.814Z,5.60
2024-05-09T16:08:15.203Z,4.63
2024-05-09T16:10:46.136Z,6.47
2024-05-09T16:13:14.398Z,5.28
2024-05-09T16:15:41.706Z,7.75
2024-05-09T16:18:09.004Z,5.97
2024-05-09T16:20:40.235Z,4.65
2024-05-09T16:23:09.750Z,4.78
2024-05-09T16:25:37.440Z,5.72
2024-05-09T16:28:08.808Z,4.82
2024-05-09T16:30:41.091Z,6.88
2024-05-09T16:33:09.027Z,5.60
2024-05-09T16:35:37.509Z,7.03
2024-05-09T16:38:06.173Z,5.55
2024-05-09T16:40:38.191Z,4.07
2024-05-09T16:43:09.057Z,5.50
2024-05-09T16:45:37.052Z,4.50
2024-05-09T16:48:04.761Z,6.85
2024-05-09T16:50:34.514Z,5.10
2024-05-09T16:53:04.128Z,7.80
2024-05-09T16:55:31.791Z,4.22
2024-05-09T16:57:59.223Z,5.65
2024-05-09T17:00:36.291Z,7.32
2024-05-09T17:03:10.161Z,5.13
2024-05-09T17:05:38.316Z,6.03
2024-05-09T17:08:06.163Z,5.43
2024-05-09T17:10:35.052Z,5.93
2024-05-09T17:13:04.430Z,7.07
2024-05-09T17:15:32.911Z,4.47
2024-05-09T17:18:00.775Z,6.90
2024-05-09T17:20:33.222Z,5.20
2024-05-09T17:23:03.404Z,5.95
2024-05-09T17:25:30.480Z,6.50
2024-05-09T17:27:59.719Z,8.35
2024-05-09T17:30:32.548Z,4.10
2024-05-09T17:33:07.601Z,5.28
2024-05-09T17:35:36.161Z,7.30
2024-05-09T17:38:03.382Z,9.07
2024-05-09T17:40:34.007Z,5.60
2024-05-09T17:43:05.136Z,6.78
2024-05-09T17:48:00.432Z,7.32
2024-05-09T17:50:35.109Z,6.57
2024-05-09T17:53:05.691Z,12.05
2024-05-09T17:55:33.188Z,6.60
2024-05-09T17:58:00.866Z,5.10
2024-05-09T18:00:37.044Z,5.65
2024-05-09T18:03:08.558Z,6.85
2024-05-09T18:05:37.055Z,25.65
2024-05-09T18:08:06.060Z,11.98
2024-05-09T18:10:37.426Z,15.07
2024-05-09T18:13:10.629Z,13.00
2024-05-09T18:15:38.806Z,15.38
2024-05-09T18:18:07.095Z,13.48
2024-05-09T18:20:42.063Z,5.97
2024-05-09T18:23:14.411Z,8.35
2024-05-09T18:25:42.684Z,5.40
2024-05-09T18:28:10.227Z,7.57
2024-05-09T18:30:37.893Z,6.65
2024-05-09T18:33:07.804Z,7.25
2024-05-09T18:35:36.357Z,8.00
2024-05-09T18:38:05.387Z,5.13
2024-05-09T18:40:36.184Z,7.93
2024-05-09T18:43:07.164Z,7.18
2024-05-09T18:45:36.485Z,8.55
2024-05-09T18:48:05.588Z,7.90
2024-05-09T18:50:37.534Z,6.28
2024-05-09T18:53:08.237Z,7.38
2024-05-09T18:55:35.476Z,6.80
2024-05-09T18:58:03.577Z,6.32
2024-05-09T19:00:35.389Z,8.48
2024-05-09T19:03:10.261Z,7.32
2024-05-09T19:05:40.620Z,8.25
2024-05-09T19:08:08.826Z,8.70
2024-05-09T19:10:38.709Z,10.05
2024-05-09T19:13:10.826Z,6.70
2024-05-09T19:15:40.769Z,14.45
2024-05-09T19:18:08.757Z,10.32
2024-05-09T19:20:37.062Z,15.82
2024-05-09T19:23:06.472Z,14.70
2024-05-09T19:25:35.060Z,8.07
2024-05-09T19:28:03.150Z,12.32
2024-05-09T19:30:38.221Z,10.80
2024-05-09T19:33:10.195Z,9.68
2024-05-09T19:35:38.313Z,8.95
2024-05-09T19:38:05.702Z,9.85
2024-05-09T19:40:34.489Z,10.23
2024-05-09T19:43:03.384Z,8.90
2024-05-09T19:45:32.578Z,14.40
2024-05-09T19:48:00.169Z,12.27
2024-05-09T19:50:36.795Z,13.02
2024-05-09T19:55:36.188Z,11.10
2024-05-09T19:58:05.559Z,11.93
2024-05-09T20:00:40.387Z,11.77
2024-05-09T20:03:10.365Z,9.02
2024-05-09T20:05:38.742Z,10.00
2024-05-09T20:08:06.867Z,8.45
2024-05-09T20:10:35.690Z,8.43
2024-05-09T20:13:08.386Z,9.57
2024-05-09T20:15:37.944Z,10.05
2024-05-09T20:20:39.352Z,9.75
2024-05-09T20:23:10.261Z,10.52
2024-05-09T20:25:37.474Z,10.65
2024-05-09T20:28:06.618Z,11.73
2024-05-09T20:30:35.179Z,8.15
2024-05-09T20:33:04.873Z,11.38
2024-05-09T20:35:33.529Z,10.52
2024-05-09T20:38:02.153Z,11.98
2024-05-09T20:40:34.247Z,13.95
2024-05-09T20:43:05.129Z,10.55
2024-05-09T20:45:32.542Z,11.30
2024-05-09T20:47:59.938Z,11.93
2024-05-09T20:50:36.067Z,10.60
2024-05-09T20:53:09.345Z,11.57
2024-05-09T20:58:03.594Z,10.43
2024-05-09T21:00:38.973Z,12.30
2024-05-09T21:03:10.168Z,12.25
2024-05-09T21:05:37.523Z,9.50
2024-05-09T21:08:04.959Z,9.07
2024-05-09T21:10:33.640Z,12.52
2024-05-09T21:13:03.122Z,14.40
2024-05-09T21:15:31.500Z,11.15
2024-05-09T21:17:58.907Z,8.27
2024-05-09T21:20:31.237Z,10.27
2024-05-09T21:23:00.151Z,8.40
2024-05-09T21:25:27.542Z,12.65
2024-05-09T21:27:54.783Z,11.23
2024-05-09T21:30:32.456Z,10.77
2024-05-09T21:33:14.785Z,12.40
2024-05-09T21:35:44.306Z,9.73
2024-05-09T21:38:14.218Z,11.88
2024-05-09T21:40:42.158Z,12.93
2024-05-09T21:43:09.476Z,13.90
2024-05-09T21:45:37.398Z,10.68
2024-05-09T21:48:05.940Z,10.95
2024-05-09T21:50:39.623Z,10.23
2024-05-09T21:53:08.969Z,10.70
2024-05-09T21:55:36.034Z,9.90
2024-05-09T21:58:03.513Z,9.15
2024-05-09T22:00:36.563Z,10.57
2024-05-09T22:03:10.859Z,12.82
2024-05-09T22:05:42.144Z,11.40
2024-05-09T22:08:09.779Z,12.45
2024-05-09T22:10:37.339Z,12.30
2024-05-09T22:13:06.379Z,13.13
2024-05-09T22:15:39.454Z,12.35
2024-05-09T22:18:08.711Z,15.13
2024-05-09T22:20:39.051Z,11.52
2024-05-09T22:23:07.815Z,13.50
2024-05-09T22:25:35.509Z,15.20
2024-05-09T22:28:03.326Z,13.02
2024-05-09T22:30:36.435Z,18.58
2024-05-09T22:33:10.809Z,13.30
2024-05-09T22:35:39.433Z,13.60
2024-05-09T22:38:06.754Z,15.02
2024-05-09T22:40:43.341Z,12.43
2024-05-09T22:43:21.058Z,13.52
2024-05-09T22:45:50.104Z,55.45
2024-05-09T22:48:17.654Z,16.48
2024-05-09T22:50:45.150Z,14.95
2024-05-09T22:53:12.151Z,12.80
2024-05-09T22:55:39.091Z,13.15
2024-05-09T22:58:06.199Z,12.13
2024-05-09T23:00:33.991Z,16.10
2024-05-09T23:03:01.841Z,18.00
2024-05-09T23:05:29.690Z,16.70
2024-05-09T23:07:57.100Z,18.17
2024-05-09T23:10:32.148Z,15.40
2024-05-09T23:13:03.684Z,13.75
2024-05-09T23:15:31.048Z,13.95
2024-05-09T23:17:58.665Z,13.00
2024-05-09T23:20:33.483Z,16.48
2024-05-09T23:23:05.768Z,15.15
2024-05-09T23:25:32.830Z,13.93
2024-05-09T23:27:59.961Z,11.98
2024-05-09T23:30:34.424Z,13.93
2024-05-09T23:33:06.329Z,14.80
2024-05-09T23:35:33.491Z,16.02
2024-05-09T23:38:00.589Z,15.07
2024-05-09T23:40:37.432Z,24.75
2024-05-09T23:43:11.153Z,15.00
2024-05-09T23:45:38.883Z,17.45
2024-05-09T23:48:06.712Z,17.50
2024-05-09T23:50:36.999Z,14.65
2024-05-09T23:53:07.631Z,16.05
2024-05-09T23:55:35.856Z,20.42
2024-05-09T23:58:03.027Z,20.40
